NCAR-RAP Real-Time Weather Data

Output produced by METARs form (17 December 2018  07:29 UTC)
found at http://weather.rap.ucar.edu/surface/
 
RJFO 170700Z 30010KT 260V330 9999 FEW025 SCT045 11/02 Q1014
RJFO 170600Z 31012KT 9999 FEW030 SCT045 BKN060 11/02 Q1014
RJFO 170500Z 30012KT 9999 FEW030 SCT045 12/00 Q1014
RJFO 170423Z 30015G26KT 260V350 9999 FEW030 SCT045 13/01 Q1014 RMK 1CU030 4CU045 A2995
RJFO 170400Z 30015KT 270V340 9999 FEW030 SCT045 12/02 Q1014
RJFO 170333Z 31015G27KT 270V340 9999 FEW030 SCT050 13/02 Q1014 RMK 1CU030 3SC050 A2995
RJFO 170300Z 30009KT 9999 FEW030 SCT040 12/02 Q1014
RJFO 170200Z 30009KT 250V340 9999 FEW030 SCT080 12/03 Q1015
RJFO 170100Z 28008KT 9999 FEW030 SCT070 11/03 Q1016
RJFO 170000Z 28007KT 240V310 9999 FEW030 SCT080 11/06 Q1015
RJFO 162300Z 28005KT 230V330 9999 FEW025 SCT040 BKN050 10/07 Q1014
RJFO 162200Z 25004KT 9999 FEW020 SCT045 BKN050 10/08 Q1013
RJFO 161300Z 33004KT 9999 -RA FEW025 BKN050 BKN070 10/10 Q1015
RJFO 161200Z 26003KT 220V290 9999 -SHRA FEW025 SCT040 BKN060 10/10 Q1016
RJFO 161100Z 29005KT 260V330 8000 -SHRA BKN025 BKN035 11/10 Q1016
RJFO 161000Z 28003KT 240V320 9999 -SHRA FEW020 BKN035 BKN045 10/10 Q1015
RJFO 160900Z 30003KT 260V330 9999 FEW010 BKN045 BKN050 10/10 Q1016
RJFO 160800Z 25002KT 9999 -RA FEW010 SCT045 BKN050 10/10 Q1016
RJFO 160700Z VRB02KT 9999 -RA FEW003 SCT040 BKN050 10/10 Q1017
RJFO 160600Z 24002KT 9999 -RA FEW010 SCT040 BKN050 10/09 Q1017
RJFO 160500Z VRB02KT 9999 -RA FEW010 SCT040 BKN050 10/09 Q1018
RJFO 160400Z 26003KT 9999 -SHRA FEW030 SCT045 BKN050 09/08 Q1019
RJFO 160300Z 26004KT 9999 -SHRA FEW030 BKN045 BKN050 09/08 Q1020
RJFO 160200Z 24002KT 9999 -SHRA FEW035 BKN045 BKN050 09/07 Q1022
RJFO 160100Z 22005KT 190V250 9999 -SHRA FEW030 SCT045 BKN070 10/06 Q1023
RJFO 160000Z 25003KT 200V280 9999 FEW030 SCT080 BKN110 09/05 Q1023
RJFO 151300Z 26004KT 9999 FEW030 04/03 Q1028
RJFO 151200Z 26004KT 9999 FEW030 05/02 Q1028
RJFO 151100Z 26004KT 9999 FEW030 05/02 Q1028
RJFO 151000Z 26003KT 9999 FEW030 05/03 Q1028
RJFO 150900Z 27003KT 9999 FEW030 07/03 Q1028
RJFO 150800Z 33002KT 9999 FEW030 09/03 Q1028
RJFO 150700Z 05005KT 9999 FEW030 11/02 Q1028
RJFO 150600Z 08003KT 030V110 9999 FEW030 11/03 Q1028
RJFO 150500Z 05006KT 020V090 9999 FEW025 SCT030 11/02 Q1028
RJFO 150400Z 04004KT 360V080 9999 FEW025 SCT030 10/03 Q1029
RJFO 150300Z VRB02KT 9999 FEW020 SCT030 11/04 Q1030
RJFO 150200Z 04005KT 340V080 9999 FEW030 10/03 Q1030
RJFO 150100Z 35007KT 290V010 9999 FEW025 SCT030 10/03 Q1031
RJFO 150000Z 30005KT 240V340 9999 FEW030 09/02 Q1031
RJFO 142300Z 27007KT 9999 FEW020 SCT035 07/00 Q1030
RJFO 142200Z 28005KT 9999 FEW020 SCT030 06/M00 Q1029